createdAt,value
2019-03-22T00:01:55.693Z,33.77
2019-03-22T00:04:23.098Z,35.87
2019-03-22T00:06:50.524Z,32.77
2019-03-22T00:09:17.979Z,37.47
2019-03-22T00:11:45.369Z,31.97
2019-03-22T00:14:12.859Z,32.37
2019-03-22T00:16:40.334Z,34.87
2019-03-22T00:19:07.735Z,32.37
2019-03-22T00:21:35.245Z,33.20
2019-03-22T00:24:02.629Z,32.10
2019-03-22T00:26:32.460Z,35.53
2019-03-22T00:28:59.345Z,33.20
2019-03-22T00:31:26.785Z,33.73
2019-03-22T00:33:54.202Z,33.63
2019-03-22T00:36:21.660Z,33.97
2019-03-22T00:38:49.088Z,34.87
2019-03-22T00:41:16.497Z,32.80
2019-03-22T00:43:43.898Z,32.93
2019-03-22T00:46:11.259Z,33.07
2019-03-22T00:48:38.722Z,34.37
2019-03-22T00:51:06.118Z,34.27
2019-03-22T00:53:33.495Z,33.17
2019-03-22T00:56:00.892Z,34.70
2019-03-22T00:58:28.364Z,33.13
2019-03-22T01:00:55.738Z,32.10
2019-03-22T01:03:23.129Z,31.03
2019-03-22T01:05:50.512Z,31.60
2019-03-22T01:08:17.912Z,31.80
2019-03-22T01:10:45.305Z,30.83
2019-03-22T01:13:12.768Z,29.80
2019-03-22T01:15:40.165Z,28.17
2019-03-22T01:18:07.544Z,28.13
2019-03-22T01:20:34.936Z,29.77
2019-03-22T01:23:02.331Z,28.97
2019-03-22T01:25:29.714Z,28.20
2019-03-22T01:27:57.106Z,27.57
2019-03-22T01:30:24.482Z,29.43
2019-03-22T01:32:51.890Z,28.27
2019-03-22T01:35:19.282Z,28.80
2019-03-22T01:37:46.652Z,27.33
2019-03-22T01:40:15.042Z,29.63
2019-03-22T01:42:42.493Z,28.90
2019-03-22T01:45:10.845Z,27.47
2019-03-22T01:47:38.230Z,28.23
2019-03-22T01:50:06.680Z,28.73
2019-03-22T01:52:34.083Z,28.63
2019-03-22T01:55:01.441Z,26.63
2019-03-22T01:57:28.866Z,27.87
2019-03-22T01:59:56.266Z,28.77
2019-03-22T02:02:23.691Z,28.17
2019-03-22T02:04:51.066Z,28.50
2019-03-22T02:07:18.469Z,28.10
2019-03-22T02:09:45.884Z,26.47
2019-03-22T02:12:13.256Z,25.27
2019-03-22T02:14:40.657Z,26.63
2019-03-22T02:17:08.026Z,25.43
2019-03-22T02:19:35.419Z,25.63
2019-03-22T02:22:02.789Z,27.10
2019-03-22T02:24:30.194Z,26.70
2019-03-22T02:26:57.569Z,26.27
2019-03-22T02:29:24.963Z,26.77
2019-03-22T02:31:52.336Z,27.47
2019-03-22T02:34:19.708Z,33.00
2019-03-22T02:36:47.106Z,29.10
2019-03-22T02:39:14.637Z,31.03
2019-03-22T02:41:42.099Z,28.97
2019-03-22T02:44:09.580Z,30.50
2019-03-22T02:46:36.953Z,30.13
2019-03-22T02:49:04.356Z,29.03
2019-03-22T02:51:31.734Z,33.40
2019-03-22T02:53:59.116Z,31.00
2019-03-22T02:56:26.500Z,31.63
2019-03-22T02:58:53.881Z,31.83
2019-03-22T03:01:21.269Z,32.20
2019-03-22T03:03:48.687Z,33.17
2019-03-22T03:06:16.073Z,32.47
2019-03-22T03:08:43.465Z,35.73
2019-03-22T03:11:10.831Z,31.80
2019-03-22T03:13:38.223Z,31.80
2019-03-22T03:16:05.619Z,33.33
2019-03-22T03:18:32.981Z,32.47
2019-03-22T03:21:00.408Z,35.73
2019-03-22T03:23:27.772Z,37.93
2019-03-22T03:25:55.149Z,36.83
2019-03-22T03:28:36.163Z,35.13
2019-03-22T03:30:51.653Z,36.67
2019-03-22T03:33:19.185Z,37.73
2019-03-22T03:35:46.571Z,37.20
2019-03-22T03:38:13.953Z,39.17
2019-03-22T03:40:41.442Z,39.40
2019-03-22T03:43:08.818Z,40.30
2019-03-22T03:45:36.711Z,40.93
2019-03-22T03:48:05.767Z,41.27
2019-03-22T03:50:33.316Z,40.27
2019-03-22T03:53:00.690Z,41.17
2019-03-22T03:55:28.427Z,40.33
2019-03-22T03:57:55.811Z,40.67
2019-03-22T04:00:23.195Z,38.17
2019-03-22T04:02:50.581Z,38.87
2019-03-22T04:05:17.984Z,37.37
2019-03-22T04:07:45.437Z,36.83
2019-03-22T04:10:12.899Z,38.53
2019-03-22T04:12:40.357Z,37.60
2019-03-22T04:15:07.971Z,34.30
2019-03-22T04:17:35.433Z,36.13
2019-03-22T04:20:03.351Z,35.07
2019-03-22T04:22:30.780Z,36.50
2019-03-22T04:24:58.153Z,39.43
2019-03-22T04:27:25.566Z,38.30
2019-03-22T04:29:53.017Z,38.37
2019-03-22T04:32:20.395Z,36.80
2019-03-22T04:34:47.804Z,39.50
2019-03-22T04:37:15.174Z,37.10
2019-03-22T04:39:42.644Z,34.17
2019-03-22T04:42:10.065Z,37.87
2019-03-22T04:44:37.536Z,39.30
2019-03-22T04:47:05.695Z,33.23
2019-03-22T04:49:34.846Z,33.80
2019-03-22T04:52:02.913Z,33.50
2019-03-22T04:54:31.743Z,32.63
2019-03-22T04:56:59.285Z,33.50
2019-03-22T04:59:26.963Z,33.43
2019-03-22T05:01:55.915Z,32.03
2019-03-22T05:04:24.603Z,33.27
2019-03-22T05:06:52.169Z,33.60
2019-03-22T05:09:21.350Z,31.00
2019-03-22T05:11:48.775Z,34.13
2019-03-22T05:14:16.853Z,34.00
2019-03-22T05:16:45.785Z,33.63
2019-03-22T05:19:13.749Z,32.00
2019-03-22T05:21:42.186Z,31.80
2019-03-22T05:24:10.463Z,32.77
2019-03-22T05:26:38.917Z,33.97
2019-03-22T05:29:06.573Z,32.40
2019-03-22T05:31:35.509Z,32.47
2019-03-22T05:34:02.983Z,32.40
2019-03-22T05:36:30.367Z,30.50
2019-03-22T05:38:57.845Z,30.80
2019-03-22T05:41:25.213Z,31.13
2019-03-22T05:43:52.589Z,32.03
2019-03-22T05:46:19.999Z,37.07
2019-03-22T05:48:47.489Z,33.17
2019-03-22T05:51:14.944Z,33.67
2019-03-22T05:53:42.335Z,35.07
2019-03-22T05:56:09.729Z,32.73
2019-03-22T05:58:37.115Z,32.43
2019-03-22T06:01:04.495Z,31.63
2019-03-22T06:03:31.984Z,32.53
2019-03-22T06:05:59.480Z,33.67
2019-03-22T06:08:26.937Z,34.93
2019-03-22T06:10:54.335Z,34.50
2019-03-22T06:13:21.725Z,34.50
2019-03-22T06:15:49.161Z,31.07
2019-03-22T06:18:16.548Z,32.10
2019-03-22T06:20:43.997Z,32.57
2019-03-22T06:23:11.405Z,32.93
2019-03-22T06:25:38.810Z,35.97
2019-03-22T06:28:06.567Z,30.77
2019-03-22T06:30:33.991Z,32.90
2019-03-22T06:33:01.462Z,32.73
2019-03-22T06:35:28.837Z,31.23
2019-03-22T06:37:56.242Z,30.97
2019-03-22T06:40:23.677Z,30.83
2019-03-22T06:42:51.129Z,30.03
2019-03-22T06:45:18.520Z,31.37
2019-03-22T06:47:45.920Z,29.00
2019-03-22T06:50:13.335Z,29.70
2019-03-22T06:52:40.731Z,29.50
2019-03-22T06:55:08.141Z,30.10
2019-03-22T06:57:35.573Z,29.90
2019-03-22T07:00:06.703Z,31.40
2019-03-22T07:02:33.690Z,30.37
2019-03-22T07:05:01.175Z,32.03
2019-03-22T07:07:28.681Z,30.73
2019-03-22T07:09:56.084Z,31.87
2019-03-22T07:12:23.526Z,33.97
2019-03-22T07:14:50.991Z,32.23
2019-03-22T07:17:18.387Z,32.47
2019-03-22T07:19:45.780Z,39.43
2019-03-22T07:22:13.173Z,35.13
2019-03-22T07:24:40.564Z,32.63
2019-03-22T07:27:07.962Z,34.00
2019-03-22T07:29:35.375Z,33.30
2019-03-22T07:32:02.759Z,33.73
2019-03-22T07:34:30.137Z,39.97
2019-03-22T07:36:57.511Z,34.47
2019-03-22T07:39:24.979Z,34.23
2019-03-22T07:41:52.353Z,30.33
2019-03-22T07:44:19.738Z,31.80
2019-03-22T07:46:47.159Z,32.00
2019-03-22T07:49:14.541Z,30.73
2019-03-22T07:51:41.981Z,32.20
2019-03-22T07:54:09.406Z,29.30
2019-03-22T07:56:36.831Z,30.87
2019-03-22T07:59:04.325Z,27.33
2019-03-22T08:01:31.725Z,30.10
2019-03-22T08:03:59.198Z,29.97
2019-03-22T08:06:26.579Z,29.53
2019-03-22T08:08:54.081Z,28.63
2019-03-22T08:11:24.436Z,27.30
2019-03-22T08:13:50.559Z,29.47
2019-03-22T08:16:18.023Z,29.70
2019-03-22T08:18:45.397Z,30.47
2019-03-22T08:21:12.809Z,29.03
2019-03-22T08:23:40.246Z,31.10
2019-03-22T08:26:07.702Z,29.90
2019-03-22T08:28:35.233Z,35.10
2019-03-22T08:31:05.357Z,32.03
2019-03-22T08:33:31.767Z,29.40
2019-03-22T08:35:59.195Z,36.33
2019-03-22T08:38:26.637Z,33.10
2019-03-22T08:40:54.043Z,36.60
2019-03-22T08:43:21.439Z,32.70
2019-03-22T08:45:48.859Z,34.53
2019-03-22T08:48:16.308Z,32.33
2019-03-22T08:50:43.710Z,31.77
2019-03-22T08:53:11.099Z,31.07
2019-03-22T08:55:38.538Z,29.93
2019-03-22T08:58:06.035Z,30.47
2019-03-22T09:00:39.129Z,32.23
2019-03-22T09:03:02.708Z,37.03
2019-03-22T09:05:30.161Z,33.83
2019-03-22T09:07:57.581Z,31.90
2019-03-22T09:10:25.017Z,27.90
2019-03-22T09:12:52.614Z,27.40
2019-03-22T09:15:20.061Z,30.10
2019-03-22T09:17:47.521Z,29.73
2019-03-22T09:20:15.002Z,28.47
2019-03-22T09:22:42.410Z,27.87
2019-03-22T09:25:09.808Z,29.63
2019-03-22T09:27:37.198Z,28.07
2019-03-22T09:30:05.990Z,28.23
2019-03-22T09:32:33.401Z,28.30
2019-03-22T09:35:00.821Z,28.10
2019-03-22T09:37:28.241Z,26.10
2019-03-22T09:39:55.716Z,26.77
2019-03-22T09:42:23.128Z,27.57
2019-03-22T09:44:50.566Z,27.90
2019-03-22T09:47:17.982Z,28.30
2019-03-22T09:49:45.423Z,27.67
2019-03-22T09:52:12.851Z,29.10
2019-03-22T09:54:40.367Z,27.20
2019-03-22T09:57:07.807Z,27.10
2019-03-22T09:59:35.209Z,26.50
2019-03-22T10:02:02.607Z,27.13
2019-03-22T10:04:30.140Z,29.13
2019-03-22T10:06:58.435Z,29.97
2019-03-22T10:09:25.886Z,27.13
2019-03-22T10:11:53.376Z,27.47
2019-03-22T10:14:21.446Z,29.70
2019-03-22T10:16:49.015Z,29.27
2019-03-22T10:19:16.474Z,29.77
2019-03-22T10:21:43.954Z,28.63
2019-03-22T10:24:11.384Z,33.03
2019-03-22T10:26:38.782Z,27.63
2019-03-22T10:29:07.076Z,26.40
2019-03-22T10:31:37.355Z,27.47
2019-03-22T10:34:04.086Z,27.67
2019-03-22T10:36:31.517Z,29.20
2019-03-22T10:38:58.962Z,28.87
2019-03-22T10:41:26.399Z,33.97
2019-03-22T10:43:53.876Z,30.13
2019-03-22T10:46:21.311Z,31.37
2019-03-22T10:48:48.705Z,27.73
2019-03-22T10:51:16.153Z,29.73
2019-03-22T10:53:43.626Z,26.70
2019-03-22T10:56:11.080Z,37.50
2019-03-22T10:58:38.453Z,27.53
2019-03-22T11:01:08.264Z,26.60
2019-03-22T11:03:35.138Z,28.53
2019-03-22T11:06:02.595Z,26.77
2019-03-22T11:08:29.984Z,28.10
2019-03-22T11:10:57.372Z,27.67
2019-03-22T11:13:24.758Z,27.53
2019-03-22T11:15:52.148Z,27.93
2019-03-22T11:18:19.548Z,27.63
2019-03-22T11:20:46.956Z,28.40
2019-03-22T11:23:14.419Z,32.40
2019-03-22T11:25:41.885Z,32.83
2019-03-22T11:28:09.366Z,31.17
2019-03-22T11:30:36.828Z,33.03
2019-03-22T11:33:04.507Z,30.03
2019-03-22T11:35:31.878Z,29.93
2019-03-22T11:37:59.248Z,29.70
2019-03-22T11:40:26.658Z,30.07
2019-03-22T11:42:56.208Z,27.87
2019-03-22T11:45:24.629Z,31.27
2019-03-22T11:47:52.324Z,30.17
2019-03-22T11:50:19.710Z,33.00
2019-03-22T11:52:47.141Z,32.27
2019-03-22T11:55:14.806Z,30.90
2019-03-22T11:57:42.327Z,30.10
2019-03-22T12:00:11.296Z,26.40
2019-03-22T12:02:38.714Z,26.47
2019-03-22T12:05:06.585Z,24.90
2019-03-22T12:07:33.978Z,24.40
2019-03-22T12:10:01.392Z,25.10
2019-03-22T12:12:28.765Z,26.67
2019-03-22T12:14:56.146Z,25.60
2019-03-22T12:17:23.561Z,28.87
2019-03-22T12:19:50.960Z,30.50
2019-03-22T12:22:18.340Z,31.60
2019-03-22T12:24:45.751Z,30.93
2019-03-22T12:27:13.118Z,30.97
2019-03-22T12:29:40.559Z,34.10
2019-03-22T12:32:08.017Z,30.90
2019-03-22T12:34:35.457Z,31.50
2019-03-22T12:37:02.882Z,30.43
2019-03-22T12:39:30.343Z,33.73
2019-03-22T12:41:57.877Z,32.07
2019-03-22T12:44:25.265Z,32.27
2019-03-22T12:46:52.660Z,31.40
2019-03-22T12:49:20.064Z,31.03
2019-03-22T12:51:47.478Z,32.07
2019-03-22T12:54:14.957Z,34.10
2019-03-22T12:56:42.391Z,30.53
2019-03-22T12:59:09.797Z,34.57
2019-03-22T13:01:37.170Z,35.30
2019-03-22T13:04:04.653Z,31.30
2019-03-22T13:06:32.111Z,29.27
2019-03-22T13:08:59.498Z,31.63
2019-03-22T13:11:26.916Z,31.57
2019-03-22T13:13:54.319Z,49.30
2019-03-22T13:16:21.734Z,30.47
2019-03-22T13:18:50.324Z,31.13
2019-03-22T13:21:18.007Z,39.87
2019-03-22T13:23:45.407Z,45.10
2019-03-22T13:26:12.807Z,40.40
2019-03-22T13:28:40.246Z,33.27
2019-03-22T13:31:07.724Z,31.90
2019-03-22T13:33:35.179Z,31.97
2019-03-22T13:36:02.589Z,31.13
2019-03-22T13:38:29.957Z,28.30
2019-03-22T13:40:57.384Z,28.27
2019-03-22T13:43:24.815Z,27.73
2019-03-22T13:45:52.243Z,28.17
2019-03-22T13:48:19.635Z,27.53
2019-03-22T13:50:47.094Z,25.87
2019-03-22T13:53:14.471Z,25.23
2019-03-22T13:55:41.889Z,24.80
2019-03-22T13:58:09.277Z,25.30
2019-03-22T14:00:36.685Z,24.20
2019-03-22T14:03:04.065Z,27.03
2019-03-22T14:05:31.477Z,24.90
2019-03-22T14:08:01.839Z,23.80
2019-03-22T14:10:30.119Z,22.27
2019-03-22T14:12:58.545Z,21.63
2019-03-22T14:15:25.988Z,24.23
2019-03-22T14:17:53.403Z,22.40
2019-03-22T14:20:20.775Z,24.10
2019-03-22T14:22:48.186Z,23.50
2019-03-22T14:25:15.577Z,29.23
2019-03-22T14:27:42.990Z,22.40
2019-03-22T14:30:10.508Z,23.67
2019-03-22T14:32:37.913Z,24.77
2019-03-22T14:35:07.168Z,23.57
2019-03-22T14:37:34.637Z,23.20
2019-03-22T14:40:02.108Z,22.67
2019-03-22T14:42:29.516Z,22.13
2019-03-22T14:44:56.888Z,22.63
2019-03-22T14:47:24.303Z,29.67
2019-03-22T14:49:51.778Z,23.50
2019-03-22T14:52:19.142Z,22.27
2019-03-22T14:54:46.576Z,23.00
2019-03-22T14:57:14.026Z,22.20
2019-03-22T14:59:41.495Z,23.33
2019-03-22T15:02:10.840Z,23.00
2019-03-22T15:04:38.003Z,23.17
2019-03-22T15:07:05.386Z,21.90
2019-03-22T15:09:32.837Z,21.20
2019-03-22T15:12:00.247Z,21.20
2019-03-22T15:14:31.950Z,22.93
2019-03-22T15:17:12.556Z,21.87
2019-03-22T15:19:50.311Z,21.53
2019-03-22T15:22:22.361Z,23.50
2019-03-22T15:25:00.302Z,20.73
2019-03-22T15:27:41.492Z,22.10
2019-03-22T15:30:25.850Z,18.73
2019-03-22T15:32:54.924Z,20.83
2019-03-22T15:38:09.822Z,20.33
2019-03-22T15:40:37.299Z,20.03
2019-03-22T15:43:04.699Z,22.80
2019-03-22T15:45:32.117Z,22.57
2019-03-22T15:48:00.081Z,21.53
2019-03-22T15:50:28.008Z,20.20
2019-03-22T15:52:55.370Z,19.47
2019-03-22T15:55:22.763Z,19.77
2019-03-22T15:57:50.156Z,20.37
2019-03-22T16:00:18.285Z,23.10
2019-03-22T16:02:45.683Z,21.07
2019-03-22T16:05:13.448Z,18.67
2019-03-22T16:07:40.828Z,22.20
2019-03-22T16:10:10.040Z,21.93
2019-03-22T16:12:37.425Z,19.50
2019-03-22T16:15:06.270Z,18.10
2019-03-22T16:17:33.676Z,20.40
2019-03-22T16:20:01.065Z,20.00
2019-03-22T16:22:28.439Z,19.37
2019-03-22T16:24:55.843Z,18.17
2019-03-22T16:27:23.216Z,19.37
2019-03-22T16:29:50.636Z,19.97
2019-03-22T16:32:18.002Z,20.03
2019-03-22T16:34:45.429Z,21.17
2019-03-22T16:37:12.862Z,21.33
2019-03-22T16:39:40.305Z,19.27
2019-03-22T16:42:07.717Z,19.10
2019-03-22T16:44:35.176Z,20.23
2019-03-22T16:47:02.579Z,20.07
2019-03-22T16:49:29.991Z,19.07
2019-03-22T16:51:57.415Z,19.53
2019-03-22T16:54:24.849Z,20.40
2019-03-22T16:56:52.253Z,20.67
2019-03-22T16:59:19.644Z,20.27
2019-03-22T17:01:47.014Z,19.47
2019-03-22T17:04:14.411Z,21.70
2019-03-22T17:06:41.779Z,21.00
2019-03-22T17:09:10.963Z,22.53
2019-03-22T17:11:38.434Z,21.67
2019-03-22T17:14:05.799Z,20.47
2019-03-22T17:16:33.194Z,19.47
2019-03-22T17:19:00.636Z,24.20
2019-03-22T17:21:28.034Z,23.93
2019-03-22T17:23:55.456Z,20.93
2019-03-22T17:26:22.861Z,21.57
2019-03-22T17:28:50.269Z,22.50
2019-03-22T17:31:17.907Z,20.37
2019-03-22T17:33:45.308Z,21.93
2019-03-22T17:36:12.782Z,21.30
2019-03-22T17:38:40.253Z,22.97
2019-03-22T17:41:07.632Z,21.03
2019-03-22T17:43:35.077Z,21.93
2019-03-22T17:46:02.487Z,35.03
2019-03-22T17:48:29.946Z,22.87
2019-03-22T17:50:57.372Z,22.30
2019-03-22T17:53:24.857Z,23.00
2019-03-22T17:55:52.272Z,29.03
2019-03-22T17:58:19.630Z,31.13
2019-03-22T18:00:47.374Z,23.57
2019-03-22T18:03:14.764Z,23.97
2019-03-22T18:05:42.178Z,23.73
2019-03-22T18:08:09.558Z,26.90
2019-03-22T18:10:36.955Z,32.03
2019-03-22T18:13:04.419Z,27.07
2019-03-22T18:15:31.825Z,24.03
2019-03-22T18:17:59.197Z,24.60
2019-03-22T18:20:26.578Z,25.60
2019-03-22T18:22:53.994Z,27.80
2019-03-22T18:25:21.380Z,25.33
2019-03-22T18:27:48.766Z,28.47
2019-03-22T18:30:16.147Z,26.87
2019-03-22T18:32:43.568Z,31.53
2019-03-22T18:35:11.081Z,27.53
2019-03-22T18:37:38.466Z,25.90
2019-03-22T18:40:07.399Z,27.53
2019-03-22T18:42:34.834Z,29.13
2019-03-22T18:45:02.520Z,26.73
2019-03-22T18:47:29.931Z,27.20
2019-03-22T18:49:57.353Z,28.07
2019-03-22T18:52:24.705Z,28.70
2019-03-22T18:54:52.102Z,29.03
2019-03-22T18:57:19.501Z,33.40
2019-03-22T18:59:46.882Z,28.47
2019-03-22T19:02:14.284Z,32.43
2019-03-22T19:04:44.380Z,33.37
2019-03-22T19:07:10.801Z,31.77
2019-03-22T19:09:38.170Z,32.50
2019-03-22T19:12:05.561Z,31.03
2019-03-22T19:14:33.032Z,32.53
2019-03-22T19:17:00.539Z,31.07
2019-03-22T19:19:27.976Z,32.70
2019-03-22T19:21:55.375Z,31.10
2019-03-22T19:24:22.742Z,31.80
2019-03-22T19:26:50.138Z,35.03
2019-03-22T19:29:17.525Z,33.13
2019-03-22T19:31:44.912Z,34.80
2019-03-22T19:34:12.323Z,34.37
2019-03-22T19:36:39.728Z,34.20
2019-03-22T19:39:07.111Z,35.77
2019-03-22T19:41:34.893Z,35.30
2019-03-22T19:44:02.292Z,33.70
2019-03-22T19:46:29.690Z,34.30
2019-03-22T19:48:57.079Z,38.03
2019-03-22T19:51:24.527Z,39.43
2019-03-22T19:53:52.001Z,36.67
2019-03-22T19:56:19.383Z,40.33
2019-03-22T19:58:46.781Z,38.87
2019-03-22T20:01:14.219Z,38.23
2019-03-22T20:03:41.603Z,40.43
2019-03-22T20:06:09.057Z,40.53
2019-03-22T20:08:36.525Z,39.53
2019-03-22T20:11:03.952Z,38.10
2019-03-22T20:13:31.428Z,37.10
2019-03-22T20:15:58.840Z,37.40
2019-03-22T20:18:26.216Z,37.63
2019-03-22T20:20:53.628Z,36.30
2019-03-22T20:23:20.995Z,38.13
2019-03-22T20:25:48.383Z,40.03
2019-03-22T20:28:15.829Z,38.53
2019-03-22T20:30:43.276Z,37.33
2019-03-22T20:33:10.651Z,47.87
2019-03-22T20:35:38.071Z,36.77
2019-03-22T20:38:05.501Z,40.40
2019-03-22T20:40:32.905Z,39.17
2019-03-22T20:43:00.298Z,36.80
2019-03-22T20:45:27.787Z,38.57
2019-03-22T20:47:55.148Z,38.47
2019-03-22T20:50:22.553Z,38.67
2019-03-22T20:52:50.104Z,36.63
2019-03-22T20:55:17.479Z,38.20
2019-03-22T20:57:44.908Z,36.57
2019-03-22T21:00:12.956Z,36.07
2019-03-22T21:02:40.333Z,35.83
2019-03-22T21:05:07.948Z,39.67
2019-03-22T21:07:35.378Z,39.10
2019-03-22T21:10:02.952Z,35.43
2019-03-22T21:12:30.399Z,39.27
2019-03-22T21:14:57.791Z,39.53
2019-03-22T21:17:25.171Z,39.67
2019-03-22T21:19:52.547Z,38.30
2019-03-22T21:22:19.953Z,39.33
2019-03-22T21:24:47.361Z,38.80
2019-03-22T21:27:15.999Z,40.77
2019-03-22T21:29:44.568Z,39.13
2019-03-22T21:32:12.100Z,40.70
2019-03-22T21:34:39.508Z,38.73
2019-03-22T21:37:07.070Z,39.00
2019-03-22T21:39:34.522Z,40.40
2019-03-22T21:42:01.921Z,40.97
2019-03-22T21:44:29.703Z,40.77
2019-03-22T21:46:57.210Z,38.37
2019-03-22T21:49:24.599Z,39.27
2019-03-22T21:51:51.995Z,47.63
2019-03-22T21:54:19.512Z,40.40
2019-03-22T21:56:46.905Z,40.83
2019-03-22T21:59:14.336Z,40.10
2019-03-22T22:01:41.738Z,39.73
2019-03-22T22:04:09.153Z,40.03
2019-03-22T22:06:36.548Z,40.43
2019-03-22T22:09:04.948Z,41.33
2019-03-22T22:11:32.346Z,41.07
2019-03-22T22:13:59.759Z,40.70
2019-03-22T22:16:27.142Z,41.57
2019-03-22T22:18:54.524Z,40.40
2019-03-22T22:21:21.936Z,40.93
2019-03-22T22:23:49.371Z,41.00
2019-03-22T22:26:16.815Z,40.27
2019-03-22T22:28:44.197Z,42.17
2019-03-22T22:31:11.596Z,42.03
2019-03-22T22:33:38.972Z,43.17
2019-03-22T22:36:06.354Z,41.70
2019-03-22T22:38:33.758Z,42.13
2019-03-22T22:41:01.144Z,40.37
2019-03-22T22:43:28.532Z,39.53
2019-03-22T22:45:55.928Z,42.17
2019-03-22T22:48:23.303Z,40.17
2019-03-22T22:50:50.716Z,42.83
2019-03-22T22:53:18.096Z,40.07
2019-03-22T22:55:45.515Z,40.93
2019-03-22T22:58:12.956Z,43.37
2019-03-22T23:00:40.528Z,41.30
2019-03-22T23:03:07.963Z,41.17
2019-03-22T23:05:35.588Z,43.33
2019-03-22T23:08:03.036Z,41.90
2019-03-22T23:10:30.493Z,43.30
2019-03-22T23:12:57.912Z,45.33
2019-03-22T23:15:25.338Z,41.77
2019-03-22T23:17:53.084Z,41.93
2019-03-22T23:20:20.490Z,44.93
2019-03-22T23:22:47.936Z,46.33
2019-03-22T23:25:15.314Z,44.90
2019-03-22T23:27:42.795Z,45.73
2019-03-22T23:30:11.348Z,44.07
2019-03-22T23:32:38.830Z,43.63
2019-03-22T23:35:06.774Z,44.43
2019-03-22T23:37:34.178Z,42.73
2019-03-22T23:40:01.559Z,45.07
2019-03-22T23:42:28.990Z,45.00
2019-03-22T23:44:56.419Z,45.17
2019-03-22T23:47:23.873Z,45.13
2019-03-22T23:49:51.261Z,46.23
2019-03-22T23:52:18.799Z,44.97
2019-03-22T23:54:46.219Z,44.10
2019-03-22T23:57:13.619Z,44.97
2019-03-22T23:59:41.050Z,44.47
